Time;durP1;ratioP1;P1;durP2;ratioP2;P2;SDS_P1;SDS_P2;PMS_P1;PMS_P2;Temp;Humidity;BMP_temperature;BMP_pressure;BME280_temperature;BME280_humidity;BME280_pressure;Samples;Min_cycle;Max_cycle;Signal;HPM_P1;HPM_P2
2022/03/26 00:00:11;;;;;;;;;;;;;;;-143.90;100.00;55043.72;2083709;28;19931;-65
2022/03/26 00:01:32;;;;;;;;;;;;;;;-143.90;100.00;55043.72;2084649;28;19920;-65
2022/03/26 00:02:52;;;;;;;;;;;;;;;-143.90;100.00;55051.66;2083453;28;19913;-65
2022/03/26 00:04:13;;;;;;;;;;;;;;;-143.90;100.00;55063.56;2083428;28;19920;-64
2022/03/26 00:05:34;;;;;;;;;;;;;;;-143.90;100.00;55059.59;2083463;28;19927;-65
2022/03/26 00:06:54;;;;;;;;;;;;;;;-143.90;100.00;55047.69;2084912;28;19972;-65
2022/03/26 00:08:15;;;;;;;;;;;;;;;-143.90;100.00;55039.75;2083211;28;19932;-62
2022/03/26 00:09:36;;;;;;;;;;;;;;;-143.90;100.00;55027.81;2085554;28;20019;-65
2022/03/26 00:10:56;;;;;;;;;;;;;;;-143.90;100.00;55027.81;2079282;28;19927;-65
2022/03/26 00:12:17;;;;;;;;;;;;;;;-143.90;100.00;55007.97;2081338;28;19927;-65
2022/03/26 00:13:38;;;;;;;;;;;;;;;-143.90;100.00;55037.75;2083517;28;19928;-65
2022/03/26 00:14:58;;;;;;;;;;;;;;;-143.90;100.00;55031.78;2083759;28;19923;-65
2022/03/26 00:16:19;;;;;;;;;;;;;;;-143.90;100.00;55041.72;2084819;28;20407;-64
2022/03/26 00:17:40;;;;;;;;;;;;;;;-143.90;100.00;55047.69;2083204;28;19967;-64
2022/03/26 00:19:00;;;;;;;;;;;;;;;-143.90;100.00;55071.50;2084732;28;19974;-65
2022/03/26 00:20:22;;;;;;;;;;;;;;;-143.90;100.00;55051.66;2082870;28;20001;-65
2022/03/26 00:21:43;;;;;;;;;;;;;;;-143.90;100.00;55031.78;2085064;28;19921;-63
2022/03/26 00:23:03;;;;;;;;;;;;;;;-143.90;100.00;55049.66;2082317;28;20386;-65
2022/03/26 00:24:24;;;;;;;;;;;;;;;-143.90;100.00;55035.78;2083689;28;19935;-65
2022/03/26 00:25:45;;;;;;;;;;;;;;;-143.90;100.00;55055.63;2084609;28;20380;-64
2022/03/26 00:27:06;;;;;;;;;;;;;;;-143.90;100.00;55023.84;2084304;28;19958;-64
2022/03/26 00:28:27;;;;;;;;;;;;;;;-143.90;100.00;55043.72;2074910;28;20508;-64
2022/03/26 00:29:47;;;;;;;;;;;;;;;-143.90;100.00;55041.72;2081868;28;19967;-65
2022/03/26 00:31:08;;;;;;;;;;;;;;;-143.90;100.00;55067.53;2083685;28;19921;-64
2022/03/26 00:32:29;;;;;;;;;;;;;;;-143.90;100.00;55027.81;2083720;28;20027;-65
2022/03/26 00:33:53;;;;;;;;;;;;;;;-143.90;100.00;55023.84;2085619;28;19927;-64
2022/03/26 00:35:13;;;;;;;;;;;;;;;-143.90;100.00;55039.75;2084592;28;19953;-65
2022/03/26 00:36:34;;;;;;;;;;;;;;;-143.90;100.00;55047.69;2083139;28;20340;-65
2022/03/26 00:37:55;;;;;;;;;;;;;;;-143.90;100.00;55047.69;2083668;28;19935;-65
2022/03/26 00:39:16;;;;;;;;;;;;;;;-143.90;100.00;55071.50;2082200;28;19921;-65
2022/03/26 00:40:37;;;;;;;;;;;;;;;-143.90;100.00;55029.81;2083429;28;19925;-65
2022/03/26 00:41:57;;;;;;;;;;;;;;;-143.90;100.00;55035.78;2085019;28;20331;-64
2022/03/26 00:43:18;;;;;;;;;;;;;;;-143.90;100.00;55045.69;2082711;28;19921;-65
2022/03/26 00:44:39;;;;;;;;;;;;;;;-143.90;100.00;55079.44;2081808;28;19924;-64
2022/03/26 00:45:59;;;;;;;;;;;;;;;-143.90;100.00;55083.41;2083301;28;20647;-64
2022/03/26 00:47:20;;;;;;;;;;;;;;;-143.90;100.00;55037.75;2082596;28;20494;-65
2022/03/26 00:48:41;;;;;;;;;;;;;;;-143.90;100.00;55045.69;2080907;28;19921;-65
2022/03/26 00:50:03;;;;;;;;;;;;;;;-143.90;100.00;55039.75;2083212;28;19921;-65
2022/03/26 00:51:23;;;;;;;;;;;;;;;-143.90;100.00;55035.78;2085326;28;19974;-64
2022/03/26 00:52:44;;;;;;;;;;;;;;;-143.90;100.00;55033.78;2083799;28;20578;-65
2022/03/26 00:54:05;;;;;;;;;;;;;;;-143.90;100.00;55035.78;2083212;28;20447;-65
2022/03/26 00:55:25;;;;;;;;;;;;;;;-143.90;100.00;55043.72;2082507;28;19935;-65
2022/03/26 00:56:46;;;;;;;;;;;;;;;-143.90;100.00;55037.75;2076678;28;19921;-65
2022/03/26 00:58:07;;;;;;;;;;;;;;;-143.90;100.00;55047.69;2082515;28;19929;-65
2022/03/26 00:59:28;;;;;;;;;;;;;;;-143.90;100.00;55031.78;2083445;28;19921;-65
2022/03/26 01:00:48;;;;;;;;;;;;;;;-143.90;100.00;55037.75;2082722;28;19974;-63
2022/03/26 01:02:09;;;;;;;;;;;;;;;-143.90;100.00;55031.78;2083296;28;19920;-63
2022/03/26 01:03:30;;;;;;;;;;;;;;;-143.90;100.00;55055.63;2084397;28;19936;-64
2022/03/26 01:04:50;;;;;;;;;;;;;;;-143.90;100.00;55037.75;2084403;28;19921;-62
2022/03/26 01:06:11;;;;;;;;;;;;;;;-143.90;100.00;55035.78;2084440;28;19989;-62
2022/03/26 01:07:32;;;;;;;;;;;;;;;-143.90;100.00;55059.59;2074611;28;19921;-63
2022/03/26 01:08:53;;;;;;;;;;;;;;;-143.90;100.00;55077.47;2081957;28;19920;-63
2022/03/26 01:10:14;;;;;;;;;;;;;;;-143.90;100.00;55061.59;2083461;28;19921;-63
2022/03/26 01:11:34;;;;;;;;;;;;;;;-143.90;100.00;55083.41;2084774;28;20063;-63
2022/03/26 01:12:55;;;;;;;;;;;;;;;-143.90;100.00;55037.75;2084524;28;19935;-63
2022/03/26 01:14:16;;;;;;;;;;;;;;;-143.90;100.00;55047.69;2084970;28;19921;-62
2022/03/26 01:15:36;;;;;;;;;;;;;;;-143.90;100.00;55063.56;2081972;28;20277;-62
2022/03/26 01:16:57;;;;;;;;;;;;;;;-143.90;100.00;55051.66;2074918;28;19928;-62
2022/03/26 01:18:18;;;;;;;;;;;;;;;-143.90;100.00;55051.66;2080511;28;19924;-63
2022/03/26 01:19:39;;;;;;;;;;;;;;;-143.90;100.00;55079.44;2074068;28;19921;-62
2022/03/26 01:21:00;;;;;;;;;;;;;;;-143.90;100.00;55047.69;2079963;28;20561;-62
2022/03/26 01:22:21;;;;;;;;;;;;;;;-143.90;100.00;55059.59;2084879;28;19921;-63
2022/03/26 01:23:43;;;;;;;;;;;;;;;-143.90;100.00;55063.56;2083246;28;19928;-63
2022/03/26 01:25:04;;;;;;;;;;;;;;;-143.90;100.00;55051.66;2082954;28;19920;-63
2022/03/26 01:26:25;;;;;;;;;;;;;;;-143.90;100.00;55041.72;2075579;28;19921;-63
2022/03/26 01:27:46;;;;;;;;;;;;;;;-143.90;100.00;55067.53;2083703;28;19921;-63
2022/03/26 01:29:07;;;;;;;;;;;;;;;-143.90;100.00;55069.53;2083339;28;20285;-62
2022/03/26 01:30:28;;;;;;;;;;;;;;;-143.90;100.00;55035.78;2083281;28;19935;-62
2022/03/26 01:31:49;;;;;;;;;;;;;;;-143.90;100.00;55051.66;2084513;28;19921;-62
2022/03/26 01:33:10;;;;;;;;;;;;;;;-143.90;100.00;55033.78;2074985;28;19967;-63
2022/03/26 01:34:30;;;;;;;;;;;;;;;-143.90;100.00;55083.41;2081759;28;20011;-63
2022/03/26 01:35:51;;;;;;;;;;;;;;;-143.90;100.00;55075.47;2083260;28;19929;-62
2022/03/26 01:37:12;;;;;;;;;;;;;;;-143.90;100.00;55055.63;2084984;28;19921;-62
2022/03/26 01:38:33;;;;;;;;;;;;;;;-143.90;100.00;55077.47;2084566;28;19925;-62
2022/03/26 01:39:54;;;;;;;;;;;;;;;-143.90;100.00;55037.75;2073659;28;19921;-63
2022/03/26 01:41:15;;;;;;;;;;;;;;;-143.90;100.00;55067.53;2080531;28;19931;-63
2022/03/26 01:42:35;;;;;;;;;;;;;;;-143.90;100.00;55071.50;2083098;28;20471;-63
2022/03/26 01:43:56;;;;;;;;;;;;;;;-143.90;100.00;55031.78;2083957;28;19927;-63
2022/03/26 01:45:16;;;;;;;;;;;;;;;-143.90;100.00;55067.53;2084249;28;19955;-63
2022/03/26 01:46:50;;;;;;;;;;;;;;;-143.90;100.00;55063.56;2084387;28;19927;-62
2022/03/26 01:48:11;;;;;;;;;;;;;;;-143.90;100.00;55039.75;2079850;28;19920;-63
2022/03/26 01:49:32;;;;;;;;;;;;;;;-143.90;100.00;55055.63;2085761;28;20467;-63
2022/03/26 01:50:53;;;;;;;;;;;;;;;-143.90;100.00;55035.78;2086613;28;20388;-62
2022/03/26 01:52:13;;;;;;;;;;;;;;;-143.90;100.00;55031.78;2085540;28;19971;-63
2022/03/26 01:53:34;;;;;;;;;;;;;;;-143.90;100.00;55043.72;2084216;28;19927;-62
2022/03/26 01:54:55;;;;;;;;;;;;;;;-143.90;100.00;55057.59;2084900;28;19939;-63
2022/03/26 01:56:16;;;;;;;;;;;;;;;-143.90;100.00;55047.69;2085242;28;19927;-63
2022/03/26 01:57:37;;;;;;;;;;;;;;;-143.90;100.00;55067.53;2086041;28;19967;-63
2022/03/26 01:58:58;;;;;;;;;;;;;;;-143.90;100.00;55047.69;2086062;28;20372;-62
2022/03/26 02:00:24;;;;;;;;;;;;;;;-143.90;100.00;55023.84;2068464;28;20665;-63
2022/03/26 02:01:45;;;;;;;;;;;;;;;-143.90;100.00;55004.00;2081680;28;20007;-63
2022/03/26 02:03:07;;;;;;;;;;;;;;;-143.90;100.00;55027.81;2076203;28;19998;-62
2022/03/26 02:04:28;;;;;;;;;;;;;;;-143.90;100.00;55069.53;2081855;28;19921;-63
2022/03/26 02:05:49;;;;;;;;;;;;;;;-143.90;100.00;55043.72;2086853;28;19928;-62
2022/03/26 02:07:09;;;;;;;;;;;;;;;-143.90;100.00;55061.59;2085002;28;19928;-63
2022/03/26 02:08:31;;;;;;;;;;;;;;;-143.90;100.00;55029.81;2076692;28;19921;-63
2022/03/26 02:09:51;;;;;;;;;;;;;;;-143.90;100.00;55031.78;2082467;28;19920;-63
2022/03/26 02:11:12;;;;;;;;;;;;;;;-143.90;100.00;55047.69;2086189;28;19924;-63
2022/03/26 02:12:33;;;;;;;;;;;;;;;-143.90;100.00;55049.66;2085406;28;20016;-62
2022/03/26 02:13:55;;;;;;;;;;;;;;;-143.90;100.00;55023.84;2085974;28;19938;-62
2022/03/26 02:15:16;;;;;;;;;;;;;;;-143.90;100.00;55051.66;2085840;28;20462;-63
2022/03/26 02:16:37;;;;;;;;;;;;;;;-143.90;100.00;55059.59;2085443;28;19925;-62
2022/03/26 02:17:58;;;;;;;;;;;;;;;-143.90;100.00;55045.69;2084413;28;20010;-63
2022/03/26 02:19:20;;;;;;;;;;;;;;;-143.90;100.00;55055.63;2085868;28;20304;-62
2022/03/26 02:20:41;;;;;;;;;;;;;;;-143.90;100.00;55063.56;2078466;28;19968;-62
2022/03/26 02:22:01;;;;;;;;;;;;;;;-143.90;100.00;55055.63;2083372;28;20004;-63
2022/03/26 02:23:22;;;;;;;;;;;;;;;-143.90;100.00;55027.81;2085440;28;19925;-63
2022/03/26 02:24:43;;;;;;;;;;;;;;;-143.90;100.00;55039.75;2083227;28;19936;-62
2022/03/26 02:26:04;;;;;;;;;;;;;;;-143.90;100.00;55085.41;2075752;28;20024;-62
2022/03/26 02:27:26;;;;;;;;;;;;;;;-143.90;100.00;55055.63;2077645;28;19925;-62
2022/03/26 02:28:49;;;;;;;;;;;;;;;-143.90;100.00;55039.75;2069155;28;19922;-63
2022/03/26 02:30:10;;;;;;;;;;;;;;;-143.90;100.00;55067.53;2074570;28;20819;-63
2022/03/26 02:31:30;;;;;;;;;;;;;;;-143.90;100.00;55019.88;2077653;28;19921;-63
2022/03/26 02:32:51;;;;;;;;;;;;;;;-143.90;100.00;55067.53;2077906;28;19920;-63
2022/03/26 02:34:12;;;;;;;;;;;;;;;-143.90;100.00;55035.78;2077334;28;19935;-63
2022/03/26 02:35:32;;;;;;;;;;;;;;;-143.90;100.00;55055.63;2077126;28;19921;-61
2022/03/26 02:36:56;;;;;;;;;;;;;;;-143.90;100.00;55059.59;2077862;28;19928;-63
2022/03/26 02:38:17;;;;;;;;;;;;;;;-143.90;100.00;55047.69;2076799;28;19932;-62
2022/03/26 02:39:38;;;;;;;;;;;;;;;-143.90;100.00;55035.78;2077381;28;20761;-63
2022/03/26 02:40:59;;;;;;;;;;;;;;;-143.90;100.00;55051.66;2078898;28;19921;-63
2022/03/26 02:42:20;;;;;;;;;;;;;;;-143.90;100.00;55039.75;2078147;28;19928;-63
2022/03/26 02:43:41;;;;;;;;;;;;;;;-143.90;100.00;55011.94;2077171;28;20031;-63
2022/03/26 02:45:02;;;;;;;;;;;;;;;-143.90;100.00;55035.78;2077274;28;20006;-63
2022/03/26 02:46:22;;;;;;;;;;;;;;;-143.90;100.00;55053.63;2076468;28;19928;-62
2022/03/26 02:47:43;;;;;;;;;;;;;;;-143.90;100.00;55043.72;2072724;28;19956;-63
2022/03/26 02:49:05;;;;;;;;;;;;;;;-143.90;100.00;55035.78;2077915;28;20389;-62
2022/03/26 02:50:26;;;;;;;;;;;;;;;-143.90;100.00;55057.59;2078205;28;20394;-62
2022/03/26 02:51:47;;;;;;;;;;;;;;;-143.90;100.00;55051.66;2077501;28;19935;-62
2022/03/26 02:53:07;;;;;;;;;;;;;;;-143.90;100.00;55067.53;2076033;28;19975;-62
2022/03/26 02:54:28;;;;;;;;;;;;;;;-143.90;100.00;55083.41;2077559;28;20070;-62
2022/03/26 02:55:50;;;;;;;;;;;;;;;-143.90;100.00;55079.44;2077011;28;19928;-63
2022/03/26 02:57:11;;;;;;;;;;;;;;;-143.90;100.00;55039.75;2076028;28;19925;-62
2022/03/26 02:58:31;;;;;;;;;;;;;;;-143.90;100.00;55057.59;2074780;28;19925;-63
2022/03/26 02:59:52;;;;;;;;;;;;;;;-143.90;100.00;55067.53;2075327;28;19940;-62
2022/03/26 03:01:13;;;;;;;;;;;;;;;-143.90;100.00;55002.00;2077116;28;19933;-63
2022/03/26 03:02:34;;;;;;;;;;;;;;;-143.90;100.00;55055.63;2077678;28;19948;-63
2022/03/26 03:03:55;;;;;;;;;;;;;;;-143.90;100.00;55063.56;2076901;28;20024;-63
2022/03/26 03:05:15;;;;;;;;;;;;;;;-143.90;100.00;55027.81;2076273;28;19921;-63
2022/03/26 03:06:36;;;;;;;;;;;;;;;-143.90;100.00;55075.47;2075667;28;19925;-62
2022/03/26 03:07:57;;;;;;;;;;;;;;;-143.90;100.00;55059.59;2075365;28;19925;-62
2022/03/26 03:09:18;;;;;;;;;;;;;;;-143.90;100.00;55047.69;2076893;28;20806;-62
2022/03/26 03:10:38;;;;;;;;;;;;;;;-143.90;100.00;55017.91;2078491;28;19921;-61
2022/03/26 03:11:59;;;;;;;;;;;;;;;-143.90;100.00;55043.72;2077433;28;19921;-63
2022/03/26 03:13:22;;;;;;;;;;;;;;;-143.90;100.00;55059.59;2077369;28;19921;-63
2022/03/26 03:14:42;;;;;;;;;;;;;;;-143.90;100.00;55035.78;2075215;28;19920;-63
2022/03/26 03:16:03;;;;;;;;;;;;;;;-143.90;100.00;55055.63;2076552;28;19986;-63
2022/03/26 03:17:24;;;;;;;;;;;;;;;-143.90;100.00;55047.69;2077674;28;19952;-63
2022/03/26 03:18:45;;;;;;;;;;;;;;;-143.90;100.00;55047.69;2076855;28;19935;-62
2022/03/26 03:20:06;;;;;;;;;;;;;;;-143.90;100.00;55079.44;2077253;28;20386;-62
2022/03/26 03:21:27;;;;;;;;;;;;;;;-143.90;100.00;55039.75;2076638;28;20931;-63
2022/03/26 03:22:48;;;;;;;;;;;;;;;-143.90;100.00;55007.97;2075518;28;19968;-61
2022/03/26 03:24:08;;;;;;;;;;;;;;;-143.90;100.00;55053.63;2077098;28;19990;-63
2022/03/26 03:25:30;;;;;;;;;;;;;;;-143.90;100.00;55057.59;2081246;28;20479;-62
2022/03/26 03:26:50;;;;;;;;;;;;;;;-143.90;100.00;55043.72;2085817;28;19920;-62
2022/03/26 03:28:11;;;;;;;;;;;;;;;-143.90;100.00;55075.47;2084521;28;19920;-62
2022/03/26 03:29:33;;;;;;;;;;;;;;;-143.90;100.00;55004.00;2084660;28;19921;-63
2022/03/26 03:30:54;;;;;;;;;;;;;;;-143.90;100.00;55041.72;2074770;28;19920;-62
2022/03/26 03:32:14;;;;;;;;;;;;;;;-143.90;100.00;55059.59;2081502;28;19932;-62
2022/03/26 03:33:35;;;;;;;;;;;;;;;-143.90;100.00;55007.97;2085347;28;19925;-62
2022/03/26 03:34:56;;;;;;;;;;;;;;;-143.90;100.00;55061.59;2085480;28;19921;-62
2022/03/26 03:36:16;;;;;;;;;;;;;;;-143.90;100.00;55027.81;2086096;28;19921;-62
2022/03/26 03:37:37;;;;;;;;;;;;;;;-143.90;100.00;55063.56;2083035;28;19928;-63
2022/03/26 03:38:58;;;;;;;;;;;;;;;-143.90;100.00;55004.00;2085375;28;19976;-60
2022/03/26 03:40:19;;;;;;;;;;;;;;;-143.90;100.00;55039.75;2084884;28;20490;-62
2022/03/26 03:41:40;;;;;;;;;;;;;;;-143.90;100.00;55071.50;2084194;28;19920;-63
2022/03/26 03:43:00;;;;;;;;;;;;;;;-143.90;100.00;55031.78;2084815;28;20059;-62
2022/03/26 03:44:21;;;;;;;;;;;;;;;-143.90;100.00;55051.66;2076846;28;19921;-62
2022/03/26 03:45:42;;;;;;;;;;;;;;;-143.90;100.00;55079.44;2081090;28;19975;-63
2022/03/26 03:47:02;;;;;;;;;;;;;;;-143.90;100.00;55069.53;2085333;28;19928;-63
2022/03/26 03:48:23;;;;;;;;;;;;;;;-143.90;100.00;55053.63;2085452;28;19921;-62
2022/03/26 03:49:44;;;;;;;;;;;;;;;-143.90;100.00;55029.81;2084109;28;19924;-63
2022/03/26 03:51:04;;;;;;;;;;;;;;;-143.90;100.00;55031.78;2076252;28;20384;-62
2022/03/26 03:52:25;;;;;;;;;;;;;;;-143.90;100.00;55067.53;2082125;28;20015;-63
2022/03/26 03:53:46;;;;;;;;;;;;;;;-143.90;100.00;55047.69;2085739;28;19928;-63
2022/03/26 03:55:06;;;;;;;;;;;;;;;-143.90;100.00;55065.56;2085203;28;19924;-62
2022/03/26 03:56:27;;;;;;;;;;;;;;;-143.90;100.00;55055.63;2076949;28;20510;-62
2022/03/26 03:57:48;;;;;;;;;;;;;;;-143.90;100.00;55031.78;2081482;28;19921;-62
2022/03/26 03:59:09;;;;;;;;;;;;;;;-143.90;100.00;55031.78;2084699;28;19928;-62
2022/03/26 04:00:29;;;;;;;;;;;;;;;-143.90;100.00;55019.88;2084595;28;19927;-62
2022/03/26 04:01:50;;;;;;;;;;;;;;;-143.90;100.00;55051.66;2085413;28;19920;-62
2022/03/26 04:03:11;;;;;;;;;;;;;;;-143.90;100.00;55059.59;2083724;28;20019;-63
2022/03/26 04:04:32;;;;;;;;;;;;;;;-143.90;100.00;55035.78;2085098;28;19928;-62
2022/03/26 04:05:52;;;;;;;;;;;;;;;-143.90;100.00;55063.56;2085669;28;19943;-63
2022/03/26 04:07:13;;;;;;;;;;;;;;;-143.90;100.00;55075.47;2084684;28;19929;-61
2022/03/26 04:08:34;;;;;;;;;;;;;;;-143.90;100.00;55027.81;2083619;28;19925;-63
2022/03/26 04:09:54;;;;;;;;;;;;;;;-143.90;100.00;55075.47;2084120;28;19929;-63
2022/03/26 04:11:15;;;;;;;;;;;;;;;-143.90;100.00;55079.44;2081781;28;20445;-61
2022/03/26 04:12:36;;;;;;;;;;;;;;;-143.90;100.00;55053.63;2083471;28;20458;-58
2022/03/26 04:13:57;;;;;;;;;;;;;;;-143.90;100.00;55045.69;2084487;28;20033;-60
2022/03/26 04:15:18;;;;;;;;;;;;;;;-143.90;100.00;55021.88;2086450;28;20355;-61
2022/03/26 04:16:38;;;;;;;;;;;;;;;-143.90;100.00;55037.75;2085115;28;19921;-59
2022/03/26 04:17:59;;;;;;;;;;;;;;;-143.90;100.00;55061.59;2082415;28;19929;-60
2022/03/26 04:19:20;;;;;;;;;;;;;;;-143.90;100.00;55055.63;2083849;28;19921;-60
2022/03/26 04:20:40;;;;;;;;;;;;;;;-143.90;100.00;55063.56;2084105;28;19935;-61
2022/03/26 04:22:01;;;;;;;;;;;;;;;-143.90;100.00;55035.78;2084911;28;19920;-61
2022/03/26 04:23:22;;;;;;;;;;;;;;;-143.90;100.00;55063.56;2083920;28;19935;-61
2022/03/26 04:24:42;;;;;;;;;;;;;;;-143.90;100.00;55045.69;2083699;28;19925;-60
2022/03/26 04:26:03;;;;;;;;;;;;;;;-143.90;100.00;55051.66;2084353;28;19925;-61
2022/03/26 04:27:24;;;;;;;;;;;;;;;-143.90;100.00;55055.63;2084507;28;19920;-59
2022/03/26 04:28:44;;;;;;;;;;;;;;;-143.90;100.00;55059.59;2085160;28;20011;-60
2022/03/26 04:30:05;;;;;;;;;;;;;;;-143.90;100.00;55063.56;2086629;28;19971;-61
2022/03/26 04:31:26;;;;;;;;;;;;;;;-143.90;100.00;55097.31;2084041;28;19924;-61
2022/03/26 04:32:47;;;;;;;;;;;;;;;-143.90;100.00;55063.56;2085395;28;19999;-59
2022/03/26 04:34:07;;;;;;;;;;;;;;;-143.90;100.00;55031.78;2084972;28;19976;-61
2022/03/26 04:35:28;;;;;;;;;;;;;;;-143.90;100.00;55075.47;2085008;28;19920;-61
2022/03/26 04:36:49;;;;;;;;;;;;;;;-143.90;100.00;55043.72;2083874;28;19921;-60
2022/03/26 04:38:09;;;;;;;;;;;;;;;-143.90;100.00;55051.66;2084569;28;20460;-61
2022/03/26 04:39:30;;;;;;;;;;;;;;;-143.90;100.00;55083.41;2084766;28;20039;-61
2022/03/26 04:40:51;;;;;;;;;;;;;;;-143.90;100.00;55091.38;2083431;28;19920;-62
2022/03/26 04:42:12;;;;;;;;;;;;;;;-143.90;100.00;55071.50;2084388;28;19928;-61
2022/03/26 04:43:32;;;;;;;;;;;;;;;-143.90;100.00;55037.75;2084353;28;19927;-59
2022/03/26 04:44:53;;;;;;;;;;;;;;;-143.90;100.00;55023.84;2083582;28;20582;-61
2022/03/26 04:46:14;;;;;;;;;;;;;;;-143.90;100.00;55051.66;2078084;28;19928;-61
2022/03/26 04:47:35;;;;;;;;;;;;;;;-143.90;100.00;55055.63;2079880;28;19925;-61
2022/03/26 04:48:56;;;;;;;;;;;;;;;-143.90;100.00;55079.44;2083585;28;19924;-61
2022/03/26 04:50:16;;;;;;;;;;;;;;;-143.90;100.00;55099.31;2083033;28;19971;-61
2022/03/26 04:51:37;;;;;;;;;;;;;;;-143.90;100.00;55065.56;2084684;28;20378;-61
2022/03/26 04:52:58;;;;;;;;;;;;;;;-143.90;100.00;55049.66;2084742;28;19931;-61
2022/03/26 04:54:18;;;;;;;;;;;;;;;-143.90;100.00;55037.75;2084070;28;19964;-60
2022/03/26 04:55:39;;;;;;;;;;;;;;;-143.90;100.00;55051.66;2083949;28;19931;-61
2022/03/26 04:57:00;;;;;;;;;;;;;;;-143.90;100.00;55063.56;2082866;28;19979;-60
2022/03/26 04:58:20;;;;;;;;;;;;;;;-143.90;100.00;55039.75;2085144;28;19925;-61
2022/03/26 04:59:41;;;;;;;;;;;;;;;-143.90;100.00;55071.50;2084466;28;20024;-61
2022/03/26 05:01:02;;;;;;;;;;;;;;;-143.90;100.00;55073.50;2083111;28;19920;-61
2022/03/26 05:02:22;;;;;;;;;;;;;;;-143.90;100.00;55017.91;2082351;28;19940;-61
2022/03/26 05:03:43;;;;;;;;;;;;;;;-143.90;100.00;55083.41;2084194;28;20846;-60
2022/03/26 05:05:04;;;;;;;;;;;;;;;-143.90;100.00;55077.47;2085738;28;19920;-61
2022/03/26 05:06:25;;;;;;;;;;;;;;;-143.90;100.00;55055.63;2081650;28;19924;-61
2022/03/26 05:07:46;;;;;;;;;;;;;;;-143.90;100.00;55023.84;2085044;28;20671;-61
2022/03/26 05:09:06;;;;;;;;;;;;;;;-143.90;100.00;55075.47;2084851;28;19927;-61
2022/03/26 05:10:28;;;;;;;;;;;;;;;-143.90;100.00;55035.78;2084790;28;20445;-62
2022/03/26 05:11:49;;;;;;;;;;;;;;;-143.90;100.00;55061.59;2084624;28;20014;-61
2022/03/26 05:13:09;;;;;;;;;;;;;;;-143.90;100.00;55059.59;2084207;28;19935;-62
2022/03/26 05:14:30;;;;;;;;;;;;;;;-143.90;100.00;55045.69;2083718;28;20008;-60
2022/03/26 05:15:51;;;;;;;;;;;;;;;-143.90;100.00;55045.69;2082987;28;20229;-62
2022/03/26 05:17:13;;;;;;;;;;;;;;;-143.90;100.00;55043.72;2083077;28;20790;-60
2022/03/26 05:18:35;;;;;;;;;;;;;;;-143.90;100.00;55055.63;2084448;28;19921;-62
2022/03/26 05:19:56;;;;;;;;;;;;;;;-143.90;100.00;55079.44;2084042;28;20019;-61
2022/03/26 05:21:16;;;;;;;;;;;;;;;-143.90;100.00;55043.72;2083352;28;19920;-61
2022/03/26 05:22:38;;;;;;;;;;;;;;;-143.90;100.00;55067.53;2083095;28;19921;-62
2022/03/26 05:23:58;;;;;;;;;;;;;;;-143.90;100.00;55031.78;2083294;28;19921;-61
2022/03/26 05:25:19;;;;;;;;;;;;;;;-143.90;100.00;55043.72;2080879;28;19925;-62
2022/03/26 05:26:40;;;;;;;;;;;;;;;-143.90;100.00;55051.66;2077211;28;19931;-62
2022/03/26 05:28:00;;;;;;;;;;;;;;;-143.90;100.00;55057.59;2077730;28;20476;-61
2022/03/26 05:29:21;;;;;;;;;;;;;;;-143.90;100.00;55059.59;2074074;28;20112;-61
2022/03/26 05:30:42;;;;;;;;;;;;;;;-143.90;100.00;55033.78;2076550;28;20439;-60
2022/03/26 05:32:04;;;;;;;;;;;;;;;-143.90;100.00;55059.59;2075203;28;20531;-62
2022/03/26 05:33:25;;;;;;;;;;;;;;;-143.90;100.00;55067.53;2074905;28;19925;-62
2022/03/26 05:34:45;;;;;;;;;;;;;;;-143.90;100.00;55051.66;2075838;28;19925;-62
2022/03/26 05:36:06;;;;;;;;;;;;;;;-143.90;100.00;55087.41;2077400;28;20744;-62
2022/03/26 05:37:26;;;;;;;;;;;;;;;-143.90;100.00;55053.63;2076241;28;19975;-62
2022/03/26 05:38:47;;;;;;;;;;;;;;;-143.90;100.00;55039.75;2075752;28;20456;-62
2022/03/26 05:40:08;;;;;;;;;;;;;;;-143.90;100.00;55015.91;2075870;28;19931;-62
2022/03/26 05:41:29;;;;;;;;;;;;;;;-143.90;100.00;55031.78;2075603;28;19925;-62
2022/03/26 05:42:50;;;;;;;;;;;;;;;-143.90;100.00;55071.50;2078140;28;19921;-62
2022/03/26 05:44:10;;;;;;;;;;;;;;;-143.90;100.00;55027.81;2076709;28;19921;-62
2022/03/26 05:45:31;;;;;;;;;;;;;;;-143.90;100.00;55057.59;2076000;28;19921;-62
2022/03/26 05:46:52;;;;;;;;;;;;;;;-143.90;100.00;55033.78;2074908;28;19932;-62
2022/03/26 05:48:13;;;;;;;;;;;;;;;-143.90;100.00;55023.84;2068411;28;20040;-62
2022/03/26 05:49:34;;;;;;;;;;;;;;;-143.90;100.00;55025.84;2075754;28;19928;-62
2022/03/26 05:50:55;;;;;;;;;;;;;;;-143.90;100.00;55019.88;2076028;28;20780;-62
2022/03/26 05:52:16;;;;;;;;;;;;;;;-143.90;100.00;55051.66;2076135;28;19929;-63
2022/03/26 05:53:36;;;;;;;;;;;;;;;-143.90;100.00;55057.59;2075987;28;19968;-60
2022/03/26 05:54:57;;;;;;;;;;;;;;;-143.90;100.00;55019.88;2075990;28;19925;-62
2022/03/26 05:56:18;;;;;;;;;;;;;;;-143.90;100.00;55051.66;2075873;28;19921;-62
2022/03/26 05:57:39;;;;;;;;;;;;;;;-143.90;100.00;55047.69;2075501;28;19932;-62
2022/03/26 05:58:59;;;;;;;;;;;;;;;-143.90;100.00;55071.50;2076736;28;19921;-62
2022/03/26 06:00:20;;;;;;;;;;;;;;;-143.90;100.00;55071.50;2075719;28;20016;-62
2022/03/26 06:01:41;;;;;;;;;;;;;;;-143.90;100.00;55017.91;2075252;28;19927;-61
2022/03/26 06:03:01;;;;;;;;;;;;;;;-143.90;100.00;55015.91;2074748;28;19917;-61
2022/03/26 06:04:27;;;;;;;;;;;;;;;-143.90;100.00;55071.50;2075342;28;19921;-61
2022/03/26 06:05:47;;;;;;;;;;;;;;;-143.90;100.00;55041.72;2074071;28;20380;-61
2022/03/26 06:07:08;;;;;;;;;;;;;;;-143.90;100.00;55019.88;2073527;28;19971;-62
2022/03/26 06:08:29;;;;;;;;;;;;;;;-143.90;100.00;55011.94;2077198;28;20822;-60
2022/03/26 06:09:49;;;;;;;;;;;;;;;-143.90;100.00;55055.63;2075416;28;19921;-61
2022/03/26 06:11:10;;;;;;;;;;;;;;;-143.90;100.00;55031.78;2074804;28;19921;-61
2022/03/26 06:12:31;;;;;;;;;;;;;;;-143.90;100.00;55085.41;2076326;28;19921;-62
2022/03/26 06:13:52;;;;;;;;;;;;;;;-143.90;100.00;55043.72;2076894;28;19927;-62
2022/03/26 06:15:13;;;;;;;;;;;;;;;-143.90;100.00;55011.94;2075249;28;19921;-62
2022/03/26 06:16:34;;;;;;;;;;;;;;;-143.90;100.00;55053.63;2073054;28;19925;-62
2022/03/26 06:17:55;;;;;;;;;;;;;;;-143.90;100.00;55039.75;2073503;28;20830;-62
2022/03/26 06:19:16;;;;;;;;;;;;;;;-143.90;100.00;55031.78;2076302;28;19927;-62
2022/03/26 06:20:36;;;;;;;;;;;;;;;-143.90;100.00;55039.75;2074847;28;20045;-65
2022/03/26 06:21:57;;;;;;;;;;;;;;;-143.90;100.00;55041.72;2075746;28;19921;-64
2022/03/26 06:23:18;;;;;;;;;;;;;;;-143.90;100.00;55021.88;2076683;28;20341;-65
2022/03/26 06:24:39;;;;;;;;;;;;;;;-143.90;100.00;55039.75;2076871;28;20455;-65
2022/03/26 06:26:00;;;;;;;;;;;;;;;-143.90;100.00;55015.91;2074591;28;19925;-65
2022/03/26 06:27:21;;;;;;;;;;;;;;;-143.90;100.00;55004.00;2074734;28;19925;-65
2022/03/26 06:28:42;;;;;;;;;;;;;;;-143.90;100.00;55025.84;2075216;28;19968;-64
2022/03/26 06:30:03;;;;;;;;;;;;;;;-143.90;100.00;55031.78;2076998;28;19952;-65
2022/03/26 06:31:24;;;;;;;;;;;;;;;-143.90;100.00;55051.66;2076636;28;20008;-65
2022/03/26 06:32:44;;;;;;;;;;;;;;;-143.90;100.00;55019.88;2074843;28;19975;-65
2022/03/26 06:34:05;;;;;;;;;;;;;;;-143.90;100.00;55000.03;2076311;28;19925;-65
2022/03/26 06:35:27;;;;;;;;;;;;;;;-143.90;100.00;54992.09;2076874;28;19987;-65
2022/03/26 06:36:48;;;;;;;;;;;;;;;-143.90;100.00;55051.66;2078156;28;19927;-65
2022/03/26 06:38:09;;;;;;;;;;;;;;;-143.90;100.00;55035.78;2077246;28;19935;-65
2022/03/26 06:39:30;;;;;;;;;;;;;;;-143.90;100.00;55041.72;2079285;28;19928;-65
2022/03/26 06:40:51;;;;;;;;;;;;;;;-143.90;100.00;55047.69;2077258;28;20010;-65
2022/03/26 06:42:11;;;;;;;;;;;;;;;-143.90;100.00;55006.00;2078286;28;19927;-63
2022/03/26 06:43:32;;;;;;;;;;;;;;;-143.90;100.00;55045.69;2075891;28;20354;-63
2022/03/26 06:44:59;;;;;;;;;;;;;;;-143.90;100.00;55045.69;2077126;28;19921;-63